createdAt,value
2023-05-25T00:02:04.836Z,99.90
2023-05-25T00:04:34.237Z,99.90
2023-05-25T00:07:01.741Z,99.90
2023-05-25T00:09:28.579Z,99.90
2023-05-25T00:11:55.877Z,99.90
2023-05-25T00:14:23.748Z,99.90
2023-05-25T00:16:51.552Z,99.90
2023-05-25T00:19:18.695Z,99.90
2023-05-25T00:21:48.403Z,99.90
2023-05-25T00:24:15.307Z,99.90
2023-05-25T00:26:42.183Z,99.90
2023-05-25T00:29:09.041Z,99.90
2023-05-25T00:31:37.006Z,99.90
2023-05-25T00:34:04.121Z,99.90
2023-05-25T00:36:31.017Z,99.90
2023-05-25T00:38:57.987Z,99.90
2023-05-25T00:41:27.850Z,99.90
2023-05-25T00:43:54.714Z,99.90
2023-05-25T00:46:22.517Z,99.90
2023-05-25T00:48:54.749Z,99.90
2023-05-25T00:51:22.456Z,99.90
2023-05-25T00:53:50.668Z,99.90
2023-05-25T00:56:26.393Z,99.90
2023-05-25T00:58:55.133Z,99.90
2023-05-25T01:01:24.245Z,99.90
2023-05-25T01:03:54.830Z,99.90
2023-05-25T01:06:23.229Z,99.90
2023-05-25T01:08:53.808Z,99.90
2023-05-25T01:11:28.906Z,99.90
2023-05-25T01:13:57.891Z,99.90
2023-05-25T01:16:28.666Z,99.90
2023-05-25T01:18:56.105Z,99.90
2023-05-25T01:21:29.375Z,99.90
2023-05-25T01:24:12.293Z,99.90
2023-05-25T01:26:44.470Z,99.90
2023-05-25T01:29:12.016Z,99.90
2023-05-25T01:31:40.466Z,99.90
2023-05-25T01:34:08.091Z,99.90
2023-05-25T01:36:34.996Z,99.90
2023-05-25T01:39:01.993Z,99.90
2023-05-25T01:41:28.927Z,99.90
2023-05-25T01:43:56.140Z,99.90
2023-05-25T01:46:39.213Z,99.90
2023-05-25T01:49:46.567Z,99.90
2023-05-25T01:52:22.114Z,99.90
2023-05-25T01:54:55.091Z,99.90
2023-05-25T01:57:24.092Z,99.90
2023-05-25T01:59:57.718Z,99.90
2023-05-25T02:02:26.278Z,99.90
2023-05-25T02:04:54.993Z,99.90
2023-05-25T02:07:23.214Z,99.90
2023-05-25T02:09:51.108Z,99.90
2023-05-25T02:12:18.053Z,99.90
2023-05-25T02:14:48.445Z,99.90
2023-05-25T02:17:17.946Z,99.90
2023-05-25T02:19:45.550Z,99.90
2023-05-25T02:22:12.542Z,99.90
2023-05-25T02:24:39.450Z,99.90
2023-05-25T02:27:07.157Z,99.90
2023-05-25T02:29:34.077Z,99.90
2023-05-25T02:32:01.018Z,99.90
2023-05-25T02:34:28.074Z,99.90
2023-05-25T02:36:54.943Z,99.90
2023-05-25T02:39:21.813Z,99.90
2023-05-25T02:41:48.649Z,99.90
2023-05-25T02:44:15.500Z,99.90
2023-05-25T02:46:42.432Z,99.90
2023-05-25T02:49:09.413Z,99.90
2023-05-25T02:51:37.071Z,99.90
2023-05-25T02:54:04.042Z,99.90
2023-05-25T02:56:31.352Z,99.90
2023-05-25T02:58:58.397Z,99.90
2023-05-25T03:01:25.783Z,99.90
2023-05-25T03:03:52.998Z,99.90
2023-05-25T03:06:21.567Z,99.90
2023-05-25T03:08:48.883Z,99.90
2023-05-25T03:11:15.914Z,99.90
2023-05-25T03:13:42.835Z,99.90
2023-05-25T03:16:09.745Z,99.90
2023-05-25T03:18:36.741Z,99.90
2023-05-25T03:21:03.745Z,99.90
2023-05-25T03:23:30.682Z,99.90
2023-05-25T03:25:58.109Z,99.90
2023-05-25T03:28:24.939Z,99.90
2023-05-25T03:30:51.880Z,99.90
2023-05-25T03:33:18.712Z,99.90
2023-05-25T03:35:46.276Z,99.90
2023-05-25T03:38:13.583Z,99.90
2023-05-25T03:40:40.463Z,99.90
2023-05-25T03:43:07.320Z,99.90
2023-05-25T03:45:34.174Z,99.90
2023-05-25T03:48:01.191Z,99.90
2023-05-25T03:50:28.139Z,99.90
2023-05-25T03:52:54.969Z,99.90
2023-05-25T03:55:21.968Z,99.90
2023-05-25T03:57:48.808Z,99.90
2023-05-25T04:00:15.972Z,99.90
2023-05-25T04:02:43.005Z,99.90
2023-05-25T04:05:10.034Z,99.90
2023-05-25T04:07:38.080Z,99.90
2023-05-25T04:10:05.665Z,99.90
2023-05-25T04:12:32.966Z,99.90
2023-05-25T04:14:59.804Z,99.90
2023-05-25T04:17:26.695Z,99.90
2023-05-25T04:19:53.665Z,99.90
2023-05-25T04:22:20.969Z,99.90
2023-05-25T04:24:48.567Z,99.90
2023-05-25T04:27:15.424Z,99.90
2023-05-25T04:29:43.074Z,99.90
2023-05-25T04:32:10.047Z,99.90
2023-05-25T04:34:36.984Z,99.90
2023-05-25T04:37:05.632Z,99.90
2023-05-25T04:39:33.000Z,99.90
2023-05-25T04:42:04.434Z,99.90
2023-05-25T04:44:32.167Z,99.90
2023-05-25T04:46:59.716Z,99.90
2023-05-25T04:49:26.849Z,99.90
2023-05-25T04:51:54.368Z,99.90
2023-05-25T04:54:21.867Z,99.90
2023-05-25T04:56:48.806Z,99.90
2023-05-25T04:59:16.448Z,99.90
2023-05-25T05:01:44.792Z,99.90
2023-05-25T05:04:12.160Z,99.90
2023-05-25T05:06:39.481Z,99.90
2023-05-25T05:09:06.394Z,99.90
2023-05-25T05:11:33.365Z,99.90
2023-05-25T05:14:00.334Z,99.90
2023-05-25T05:16:27.476Z,99.90
2023-05-25T05:18:54.390Z,99.90
2023-05-25T05:21:22.154Z,99.90
2023-05-25T05:23:50.300Z,99.90
2023-05-25T05:26:17.293Z,99.90
2023-05-25T05:28:44.185Z,99.90
2023-05-25T05:31:12.213Z,99.90
2023-05-25T05:33:39.689Z,99.90
2023-05-25T05:36:06.805Z,99.90
2023-05-25T05:38:33.749Z,99.90
2023-05-25T05:41:01.306Z,99.90
2023-05-25T05:43:28.195Z,99.90
2023-05-25T05:45:55.159Z,99.90
2023-05-25T05:48:22.075Z,99.90
2023-05-25T05:50:49.149Z,99.90
2023-05-25T05:53:16.050Z,99.90
2023-05-25T05:55:43.226Z,99.90
2023-05-25T05:58:10.238Z,99.90
2023-05-25T06:00:37.084Z,99.90
2023-05-25T06:03:04.101Z,99.90
2023-05-25T06:05:31.071Z,99.90
2023-05-25T06:07:58.137Z,99.90
2023-05-25T06:10:25.074Z,99.90
2023-05-25T06:12:52.543Z,99.90
2023-05-25T06:15:19.615Z,99.90
2023-05-25T06:17:46.546Z,99.90
2023-05-25T06:20:15.104Z,99.90
2023-05-25T06:22:42.305Z,99.90
2023-05-25T06:25:10.476Z,99.90
2023-05-25T06:27:37.532Z,99.90
2023-05-25T06:30:04.790Z,99.90
2023-05-25T06:32:31.650Z,99.90
2023-05-25T06:34:58.570Z,99.90
2023-05-25T06:37:25.931Z,99.90
2023-05-25T06:39:53.622Z,99.90
2023-05-25T06:42:21.564Z,99.90
2023-05-25T06:44:50.568Z,99.90
2023-05-25T06:47:17.403Z,99.90
2023-05-25T06:49:44.235Z,99.90
2023-05-25T06:52:11.334Z,99.90
2023-05-25T06:54:38.243Z,99.90
2023-05-25T06:57:05.294Z,99.90
2023-05-25T06:59:32.285Z,99.90
2023-05-25T07:01:59.742Z,99.90
2023-05-25T07:04:27.447Z,99.90
2023-05-25T07:06:54.508Z,99.90
2023-05-25T07:09:22.236Z,99.90
2023-05-25T07:11:49.099Z,99.90
2023-05-25T07:14:18.083Z,99.90
2023-05-25T07:16:48.218Z,99.90
2023-05-25T07:19:15.448Z,99.90
2023-05-25T07:21:42.345Z,99.90
2023-05-25T07:24:09.462Z,99.90
2023-05-25T07:26:36.568Z,99.90
2023-05-25T07:29:03.650Z,99.90
2023-05-25T07:31:30.569Z,99.90
2023-05-25T07:33:57.463Z,99.90
2023-05-25T07:36:26.984Z,99.90
2023-05-25T07:38:53.916Z,99.90
2023-05-25T07:41:21.665Z,99.90
2023-05-25T07:43:48.586Z,99.90
2023-05-25T07:46:17.269Z,99.90
2023-05-25T07:48:44.197Z,99.90
2023-05-25T07:51:11.040Z,99.90
2023-05-25T07:53:38.089Z,99.90
2023-05-25T07:56:06.236Z,99.90
2023-05-25T07:58:34.250Z,99.90
2023-05-25T08:01:01.098Z,99.90
2023-05-25T08:03:39.853Z,99.90
2023-05-25T08:06:15.148Z,99.90
2023-05-25T08:08:42.069Z,99.90
2023-05-25T08:11:08.919Z,99.90
2023-05-25T08:13:35.783Z,99.90
2023-05-25T08:16:02.611Z,99.90
2023-05-25T08:18:31.390Z,99.90
2023-05-25T08:20:58.496Z,99.90
2023-05-25T08:23:25.455Z,99.90
2023-05-25T08:25:53.497Z,99.90
2023-05-25T08:28:23.651Z,99.90
2023-05-25T08:30:50.501Z,99.90
2023-05-25T08:33:17.393Z,99.90
2023-05-25T08:35:44.415Z,99.90
2023-05-25T08:38:11.455Z,99.90
2023-05-25T08:40:41.871Z,99.90
2023-05-25T08:43:08.777Z,99.90
2023-05-25T08:45:38.486Z,99.90
2023-05-25T08:48:13.711Z,99.90
2023-05-25T08:50:42.781Z,99.90
2023-05-25T08:53:12.135Z,99.90
2023-05-25T08:55:41.091Z,99.90
2023-05-25T08:58:17.501Z,99.90
2023-05-25T09:00:52.161Z,99.90
2023-05-25T09:03:19.828Z,99.90
2023-05-25T09:05:47.580Z,99.90
2023-05-25T09:08:14.709Z,99.90
2023-05-25T09:10:42.188Z,99.90
2023-05-25T09:13:21.391Z,99.90
2023-05-25T09:15:50.608Z,99.90
2023-05-25T09:18:18.112Z,99.90
2023-05-25T09:20:47.142Z,99.90
2023-05-25T09:23:15.746Z,99.90
2023-05-25T09:25:43.869Z,99.90
2023-05-25T09:28:25.654Z,99.90
2023-05-25T09:30:54.215Z,99.90
2023-05-25T09:33:21.479Z,99.90
2023-05-25T09:35:49.158Z,99.90
2023-05-25T09:38:17.162Z,99.90
2023-05-25T09:40:45.367Z,99.90
2023-05-25T09:43:19.456Z,99.90
2023-05-25T09:45:55.816Z,99.90
2023-05-25T09:48:24.545Z,99.90
2023-05-25T09:50:52.104Z,99.90
2023-05-25T09:53:19.158Z,99.90
2023-05-25T09:55:53.624Z,99.90
2023-05-25T09:58:24.429Z,99.90
2023-05-25T10:00:54.687Z,99.90
2023-05-25T10:03:21.971Z,99.90
2023-05-25T10:05:49.387Z,99.90
2023-05-25T10:08:21.221Z,99.90
2023-05-25T10:10:50.195Z,99.90
2023-05-25T10:13:24.385Z,99.60
2023-05-25T10:15:54.142Z,99.40
2023-05-25T10:18:28.768Z,99.90
2023-05-25T10:21:05.036Z,97.30
2023-05-25T10:23:44.663Z,96.60
2023-05-25T10:26:15.948Z,97.20
2023-05-25T10:28:44.793Z,96.00
2023-05-25T10:31:13.599Z,95.40
2023-05-25T10:33:40.745Z,94.40
2023-05-25T10:36:11.305Z,94.00
2023-05-25T10:38:40.632Z,92.40
2023-05-25T10:41:11.364Z,90.60
2023-05-25T10:43:40.449Z,86.20
2023-05-25T10:46:08.292Z,85.30
2023-05-25T10:48:49.538Z,83.00
2023-05-25T10:51:20.014Z,79.10
2023-05-25T10:53:58.368Z,72.60
2023-05-25T10:56:25.386Z,70.20
2023-05-25T10:58:53.703Z,70.20
2023-05-25T11:01:20.869Z,69.70
2023-05-25T11:03:50.224Z,68.60
2023-05-25T11:06:40.730Z,69.80
2023-05-25T11:09:08.171Z,69.80
2023-05-25T11:11:45.362Z,69.60
2023-05-25T11:14:21.874Z,66.70
2023-05-25T11:17:15.688Z,67.80
2023-05-25T11:19:50.156Z,67.40
2023-05-25T11:22:20.377Z,64.60
2023-05-25T11:24:51.456Z,62.10
2023-05-25T11:27:29.417Z,63.40
2023-05-25T11:29:58.246Z,64.70
2023-05-25T11:32:26.669Z,64.50
2023-05-25T11:34:54.882Z,63.60
2023-05-25T11:37:24.924Z,65.50
2023-05-25T11:39:52.520Z,65.30
2023-05-25T11:42:24.583Z,66.40
2023-05-25T11:44:51.826Z,67.40
2023-05-25T11:47:23.177Z,68.20
2023-05-25T11:49:50.635Z,69.50
2023-05-25T11:52:19.889Z,68.60
2023-05-25T11:54:47.119Z,67.90
2023-05-25T11:57:14.999Z,68.70
2023-05-25T11:59:49.058Z,67.40
2023-05-25T12:02:15.842Z,65.50
2023-05-25T12:04:54.116Z,64.00
2023-05-25T12:07:21.396Z,64.90
2023-05-25T12:09:48.293Z,66.80
2023-05-25T12:12:15.291Z,66.00
2023-05-25T12:14:51.784Z,64.40
2023-05-25T12:17:21.370Z,64.80
2023-05-25T12:19:48.748Z,63.80
2023-05-25T12:22:16.475Z,61.70
2023-05-25T12:24:43.465Z,61.20
2023-05-25T12:27:22.778Z,60.40
2023-05-25T12:29:50.103Z,59.60
2023-05-25T12:32:17.011Z,59.10
2023-05-25T12:34:45.587Z,58.90
2023-05-25T12:37:20.188Z,57.70
2023-05-25T12:39:48.181Z,57.20
2023-05-25T12:42:17.004Z,57.00
2023-05-25T12:44:46.786Z,56.00
2023-05-25T12:47:23.758Z,54.00
2023-05-25T12:49:52.693Z,54.30
2023-05-25T12:52:39.896Z,54.00
2023-05-25T12:55:26.044Z,53.90
2023-05-25T12:57:58.298Z,54.00
2023-05-25T13:00:27.812Z,55.20
2023-05-25T13:02:55.036Z,56.60
2023-05-25T13:05:24.221Z,56.80
2023-05-25T13:07:52.041Z,56.80
2023-05-25T13:10:19.436Z,55.90
2023-05-25T13:12:47.998Z,55.50
2023-05-25T13:15:17.742Z,55.70
2023-05-25T13:17:44.979Z,55.90
2023-05-25T13:20:16.237Z,56.30
2023-05-25T13:22:44.955Z,55.70
2023-05-25T13:25:13.540Z,56.00
2023-05-25T13:27:45.655Z,56.30
2023-05-25T13:30:13.584Z,55.90
2023-05-25T13:32:43.198Z,56.10
2023-05-25T13:35:37.347Z,56.90
2023-05-25T13:38:04.426Z,57.00
2023-05-25T13:40:31.387Z,57.30
2023-05-25T13:42:58.581Z,57.60
2023-05-25T13:45:25.441Z,57.20
2023-05-25T13:47:52.567Z,56.60
2023-05-25T13:50:19.903Z,57.50
2023-05-25T13:52:46.821Z,57.20
2023-05-25T13:55:13.663Z,57.50
2023-05-25T13:57:40.644Z,57.50
2023-05-25T14:00:09.475Z,58.30
2023-05-25T14:02:37.192Z,58.70
2023-05-25T14:05:04.513Z,58.20
2023-05-25T14:07:32.639Z,58.30
2023-05-25T14:10:00.270Z,58.30
2023-05-25T14:12:27.846Z,58.10
2023-05-25T14:14:54.719Z,58.50
2023-05-25T14:17:21.678Z,58.70
2023-05-25T14:19:48.535Z,58.40
2023-05-25T14:22:15.458Z,59.00
2023-05-25T14:24:42.501Z,59.20
2023-05-25T14:27:09.574Z,59.30
2023-05-25T14:29:37.069Z,60.60
2023-05-25T14:32:04.360Z,60.00
2023-05-25T14:34:31.238Z,60.40
2023-05-25T14:36:58.071Z,59.60
2023-05-25T14:39:24.982Z,60.60
2023-05-25T14:41:51.993Z,59.90
2023-05-25T14:44:18.847Z,59.90
2023-05-25T14:46:46.301Z,60.50
2023-05-25T14:49:17.258Z,61.80
2023-05-25T14:51:44.165Z,61.50
2023-05-25T14:54:13.480Z,61.50
2023-05-25T14:56:40.656Z,61.90
2023-05-25T14:59:07.881Z,62.80
2023-05-25T15:01:35.180Z,63.00
2023-05-25T15:04:02.198Z,63.90
2023-05-25T15:06:29.162Z,63.40
2023-05-25T15:08:56.056Z,64.30
2023-05-25T15:11:22.936Z,64.20
2023-05-25T15:13:49.760Z,64.90
2023-05-25T15:16:17.354Z,66.00
2023-05-25T15:18:45.049Z,66.20
2023-05-25T15:21:11.945Z,67.10
2023-05-25T15:23:38.835Z,68.60
2023-05-25T15:26:07.710Z,69.60
2023-05-25T15:28:34.877Z,70.50
2023-05-25T15:31:03.290Z,71.00
2023-05-25T15:33:44.527Z,71.70
2023-05-25T15:36:17.140Z,72.60
2023-05-25T15:38:44.592Z,73.90
2023-05-25T15:41:15.534Z,75.30
2023-05-25T15:43:42.556Z,76.10
2023-05-25T15:46:09.478Z,77.00
2023-05-25T15:48:36.381Z,77.50
2023-05-25T15:51:03.294Z,78.20
2023-05-25T15:53:30.562Z,78.20
2023-05-25T15:55:57.606Z,79.40
2023-05-25T15:58:24.556Z,79.70
2023-05-25T16:00:51.728Z,80.10
2023-05-25T16:03:18.732Z,80.50
2023-05-25T16:05:45.775Z,81.20
2023-05-25T16:08:14.066Z,81.90
2023-05-25T16:10:41.013Z,82.30
2023-05-25T16:13:08.302Z,82.70
2023-05-25T16:15:35.192Z,82.50
2023-05-25T16:18:02.087Z,83.60
2023-05-25T16:20:29.014Z,84.20
2023-05-25T16:22:55.882Z,84.10
2023-05-25T16:25:22.921Z,84.90
2023-05-25T16:27:49.799Z,85.90
2023-05-25T16:30:16.720Z,86.50
2023-05-25T16:32:43.675Z,87.30
2023-05-25T16:35:10.955Z,88.50
2023-05-25T16:37:38.009Z,89.60
2023-05-25T16:40:05.275Z,89.80
2023-05-25T16:42:32.116Z,90.10
2023-05-25T16:44:58.985Z,90.60
2023-05-25T16:47:25.836Z,90.70
2023-05-25T16:49:52.767Z,91.00
2023-05-25T16:52:20.266Z,91.40
2023-05-25T16:54:47.141Z,91.80
2023-05-25T16:57:14.014Z,92.00
2023-05-25T16:59:40.946Z,92.50
2023-05-25T17:02:07.930Z,92.70
2023-05-25T17:04:34.818Z,93.10
2023-05-25T17:07:01.778Z,93.20
2023-05-25T17:09:29.381Z,92.90
2023-05-25T17:11:59.555Z,93.10
2023-05-25T17:14:26.825Z,93.60
2023-05-25T17:16:53.737Z,94.00
2023-05-25T17:19:20.680Z,94.30
2023-05-25T17:21:48.151Z,94.60
2023-05-25T17:24:15.270Z,95.00
2023-05-25T17:26:42.234Z,95.30
2023-05-25T17:29:09.271Z,95.30
2023-05-25T17:31:36.187Z,95.60
2023-05-25T17:34:03.648Z,96.10
2023-05-25T17:36:30.816Z,96.00
2023-05-25T17:38:57.859Z,96.20
2023-05-25T17:41:24.921Z,96.50
2023-05-25T17:43:51.957Z,96.80
2023-05-25T17:46:18.947Z,97.00
2023-05-25T17:48:45.864Z,97.20
2023-05-25T17:51:13.056Z,97.60
2023-05-25T17:53:39.933Z,98.00
2023-05-25T17:56:06.982Z,98.10
2023-05-25T17:58:33.984Z,98.50
2023-05-25T18:01:01.145Z,98.70
2023-05-25T18:03:28.193Z,99.30
2023-05-25T18:05:55.296Z,99.70
2023-05-25T18:08:22.125Z,99.90
2023-05-25T18:10:50.604Z,99.90
2023-05-25T18:13:17.491Z,99.90
2023-05-25T18:15:44.680Z,99.90
2023-05-25T18:18:11.805Z,99.90
2023-05-25T18:20:38.709Z,99.90
2023-05-25T18:23:08.210Z,99.90
2023-05-25T18:25:35.301Z,99.90
2023-05-25T18:28:02.150Z,99.90
2023-05-25T18:30:29.034Z,99.90
2023-05-25T18:32:56.061Z,99.90
2023-05-25T18:35:23.063Z,99.90
2023-05-25T18:37:49.915Z,99.90
2023-05-25T18:40:16.917Z,99.90
2023-05-25T18:42:43.857Z,99.90
2023-05-25T18:45:10.922Z,99.90
2023-05-25T18:47:37.995Z,99.90
2023-05-25T18:50:05.318Z,99.90
2023-05-25T18:52:32.224Z,99.90
2023-05-25T18:54:59.568Z,99.90
2023-05-25T18:57:26.419Z,99.90
2023-05-25T18:59:53.255Z,99.90
2023-05-25T19:02:20.595Z,99.90
2023-05-25T19:04:47.566Z,99.90
2023-05-25T19:07:14.610Z,99.90
2023-05-25T19:09:42.340Z,99.90
2023-05-25T19:12:09.353Z,99.90
2023-05-25T19:14:36.638Z,99.90
2023-05-25T19:17:03.614Z,99.90
2023-05-25T19:19:30.669Z,99.90
2023-05-25T19:21:57.633Z,99.90
2023-05-25T19:24:24.713Z,99.90
2023-05-25T19:26:51.779Z,99.90
2023-05-25T19:29:18.656Z,99.90
2023-05-25T19:31:45.816Z,99.90
2023-05-25T19:34:12.655Z,99.90
2023-05-25T19:36:39.589Z,99.90
2023-05-25T19:39:06.512Z,99.90
2023-05-25T19:41:33.638Z,99.90
2023-05-25T19:44:00.922Z,99.90
2023-05-25T19:46:27.924Z,99.90
2023-05-25T19:48:55.038Z,99.90
2023-05-25T19:51:21.885Z,99.90
2023-05-25T19:53:50.894Z,99.90
2023-05-25T19:56:18.170Z,99.90
2023-05-25T19:58:45.301Z,99.90
2023-05-25T20:01:12.298Z,99.90
2023-05-25T20:03:39.336Z,99.90
2023-05-25T20:06:06.432Z,99.90
2023-05-25T20:08:33.328Z,99.90
2023-05-25T20:11:00.176Z,99.90
2023-05-25T20:13:27.046Z,99.90
2023-05-25T20:15:54.031Z,99.90
2023-05-25T20:18:21.425Z,99.90
2023-05-25T20:20:48.324Z,99.90
2023-05-25T20:23:15.247Z,99.90
2023-05-25T20:25:42.293Z,99.90
2023-05-25T20:28:09.283Z,99.90
2023-05-25T20:30:36.301Z,99.90
2023-05-25T20:33:03.310Z,99.90
2023-05-25T20:35:30.845Z,99.90
2023-05-25T20:37:57.758Z,99.90
2023-05-25T20:40:26.572Z,99.90
2023-05-25T20:42:53.580Z,99.90
2023-05-25T20:45:20.516Z,99.90
2023-05-25T20:47:47.515Z,99.90
2023-05-25T20:50:14.366Z,99.90
2023-05-25T20:52:41.703Z,99.90
2023-05-25T20:55:09.072Z,99.90
2023-05-25T20:57:35.998Z,99.90
2023-05-25T21:00:04.387Z,99.90
2023-05-25T21:02:31.345Z,99.90
2023-05-25T21:04:58.250Z,99.90
2023-05-25T21:07:25.797Z,99.90
2023-05-25T21:09:52.615Z,99.90
2023-05-25T21:12:19.489Z,99.90
2023-05-25T21:14:46.335Z,99.90
2023-05-25T21:17:14.894Z,99.90
2023-05-25T21:19:41.950Z,99.90
2023-05-25T21:22:08.893Z,99.90
2023-05-25T21:24:35.903Z,99.90
2023-05-25T21:27:03.415Z,99.90
2023-05-25T21:29:30.295Z,99.90
2023-05-25T21:31:57.363Z,99.90
2023-05-25T21:34:24.180Z,99.90
2023-05-25T21:36:51.272Z,99.90
2023-05-25T21:39:18.473Z,99.90
2023-05-25T21:41:45.486Z,99.90
2023-05-25T21:44:12.355Z,99.90
2023-05-25T21:46:39.762Z,99.90
2023-05-25T21:49:06.674Z,99.90
2023-05-25T21:51:33.526Z,99.90
2023-05-25T21:54:00.533Z,99.90
2023-05-25T21:56:27.669Z,99.90
2023-05-25T21:58:55.133Z,99.90
2023-05-25T22:01:25.468Z,99.90
2023-05-25T22:03:52.456Z,99.90
2023-05-25T22:06:19.346Z,99.90
2023-05-25T22:08:50.391Z,99.90
2023-05-25T22:11:17.450Z,99.90
2023-05-25T22:13:44.351Z,99.90
2023-05-25T22:16:11.407Z,99.90
2023-05-25T22:18:38.655Z,99.90
2023-05-25T22:21:05.749Z,99.90
2023-05-25T22:23:32.655Z,99.90
2023-05-25T22:25:59.500Z,99.90
2023-05-25T22:28:26.340Z,99.90
2023-05-25T22:30:53.398Z,99.90
2023-05-25T22:33:20.407Z,99.90
2023-05-25T22:35:47.628Z,99.90
2023-05-25T22:38:14.761Z,99.90
2023-05-25T22:40:47.355Z,99.90
2023-05-25T22:43:14.863Z,99.90
2023-05-25T22:45:41.956Z,99.90
2023-05-25T22:48:09.364Z,99.90
2023-05-25T22:50:36.332Z,99.90
2023-05-25T22:53:03.220Z,99.90
2023-05-25T22:55:30.173Z,99.90
2023-05-25T22:57:57.151Z,99.90
2023-05-25T23:00:24.008Z,99.90
2023-05-25T23:02:50.947Z,99.90
2023-05-25T23:05:17.867Z,99.90
2023-05-25T23:07:45.103Z,99.90
2023-05-25T23:10:12.112Z,99.90
2023-05-25T23:12:39.023Z,99.90
2023-05-25T23:15:08.108Z,99.90
2023-05-25T23:17:35.173Z,99.90
2023-05-25T23:20:02.194Z,99.90
2023-05-25T23:22:29.142Z,99.90
2023-05-25T23:24:56.083Z,99.90
2023-05-25T23:27:22.932Z,99.90
2023-05-25T23:29:49.743Z,99.90
2023-05-25T23:32:16.854Z,99.90
2023-05-25T23:34:43.711Z,99.90
2023-05-25T23:37:10.686Z,99.90
2023-05-25T23:39:37.556Z,99.90
2023-05-25T23:42:04.612Z,99.90
2023-05-25T23:44:31.469Z,99.90
2023-05-25T23:46:58.263Z,99.90
2023-05-25T23:49:25.332Z,99.90
2023-05-25T23:51:52.179Z,99.90
2023-05-25T23:54:19.081Z,99.90
2023-05-25T23:56:45.919Z,99.90
2023-05-25T23:59:15.091Z,99.90
